sensor_id;sensor_type;location;lat;lon;timestamp;pressure;altitude;pressure_sealevel;temperature;humidity
59391;BME280;53405;57.012;40.984;2023-04-23T00:00:06;99739.38;;;8.34;51.71
59391;BME280;53405;57.012;40.984;2023-04-23T00:02:43;99746.25;;;8.27;51.94
59391;BME280;53405;57.012;40.984;2023-04-23T00:05:12;99698.00;;;7.96;51.92
59391;BME280;53405;57.012;40.984;2023-04-23T00:07:40;99746.56;;;8.32;52.32
59391;BME280;53405;57.012;40.984;2023-04-23T00:10:09;99743.97;;;8.24;52.30
59391;BME280;53405;57.012;40.984;2023-04-23T00:12:37;99740.38;;;8.25;52.29
59391;BME280;53405;57.012;40.984;2023-04-23T00:15:05;99724.63;;;8.17;51.83
59391;BME280;53405;57.012;40.984;2023-04-23T00:17:33;99743.63;;;8.27;52.56
59391;BME280;53405;57.012;40.984;2023-04-23T00:20:01;99734.28;;;8.32;50.73
59391;BME280;53405;57.012;40.984;2023-04-23T00:22:30;99746.09;;;8.28;52.28
59391;BME280;53405;57.012;40.984;2023-04-23T00:24:58;99746.44;;;8.25;51.21
59391;BME280;53405;57.012;40.984;2023-04-23T00:27:25;99742.00;;;8.26;50.11
59391;BME280;53405;57.012;40.984;2023-04-23T00:29:53;99753.31;;;8.18;51.82
59391;BME280;53405;57.012;40.984;2023-04-23T00:32:21;99749.44;;;8.06;52.27
59391;BME280;53405;57.012;40.984;2023-04-23T00:34:51;99731.13;;;7.73;52.27
59391;BME280;53405;57.012;40.984;2023-04-23T00:37:19;99762.53;;;7.97;51.86
59391;BME280;53405;57.012;40.984;2023-04-23T00:39:46;99762.38;;;7.99;51.76
59391;BME280;53405;57.012;40.984;2023-04-23T00:42:14;99758.31;;;7.96;51.64
59391;BME280;53405;57.012;40.984;2023-04-23T00:44:43;99768.97;;;7.95;51.54
59391;BME280;53405;57.012;40.984;2023-04-23T00:47:11;99766.50;;;7.93;52.08
59391;BME280;53405;57.012;40.984;2023-04-23T00:49:41;99763.56;;;7.88;51.78
59391;BME280;53405;57.012;40.984;2023-04-23T00:52:09;99772.56;;;7.86;51.90
59391;BME280;53405;57.012;40.984;2023-04-23T00:54:36;99766.34;;;7.87;52.08
59391;BME280;53405;57.012;40.984;2023-04-23T00:57:04;99777.50;;;7.81;51.92
59391;BME280;53405;57.012;40.984;2023-04-23T00:59:34;99773.06;;;7.73;52.34
59391;BME280;53405;57.012;40.984;2023-04-23T01:02:02;99749.81;;;7.53;52.00
59391;BME280;53405;57.012;40.984;2023-04-23T01:04:31;99779.78;;;7.75;52.13
59391;BME280;53405;57.012;40.984;2023-04-23T01:06:59;99752.75;;;7.67;52.05
59391;BME280;53405;57.012;40.984;2023-04-23T01:09:27;99777.16;;;7.84;51.78
59391;BME280;53405;57.012;40.984;2023-04-23T01:11:55;99734.91;;;7.62;52.23
59391;BME280;53405;57.012;40.984;2023-04-23T01:14:24;99742.44;;;7.57;52.43
59391;BME280;53405;57.012;40.984;2023-04-23T01:16:53;99775.69;;;7.73;52.90
59391;BME280;53405;57.012;40.984;2023-04-23T01:19:21;99765.69;;;7.68;53.57
59391;BME280;53405;57.012;40.984;2023-04-23T01:21:49;99760.63;;;7.58;53.60
59391;BME280;53405;57.012;40.984;2023-04-23T01:24:17;99766.69;;;7.67;54.33
59391;BME280;53405;57.012;40.984;2023-04-23T01:26:45;99765.22;;;7.65;53.37
59391;BME280;53405;57.012;40.984;2023-04-23T01:29:13;99772.56;;;7.45;54.70
59391;BME280;53405;57.012;40.984;2023-04-23T01:31:41;99767.19;;;7.46;54.96
59391;BME280;53405;57.012;40.984;2023-04-23T01:34:10;99746.03;;;7.31;54.16
59391;BME280;53405;57.012;40.984;2023-04-23T01:36:38;99733.09;;;7.13;54.69
59391;BME280;53405;57.012;40.984;2023-04-23T01:39:08;99768.94;;;7.29;55.12
59391;BME280;53405;57.012;40.984;2023-04-23T01:41:36;99755.38;;;7.34;53.97
59391;BME280;53405;57.012;40.984;2023-04-23T01:44:04;99762.22;;;7.18;55.40
59391;BME280;53405;57.012;40.984;2023-04-23T01:46:31;99774.81;;;7.15;55.63
59391;BME280;53405;57.012;40.984;2023-04-23T01:48:59;99767.28;;;7.12;55.78
59391;BME280;53405;57.012;40.984;2023-04-23T01:51:28;99769.03;;;6.95;56.71
59391;BME280;53405;57.012;40.984;2023-04-23T01:53:56;99780.22;;;7.21;55.79
59391;BME280;53405;57.012;40.984;2023-04-23T01:56:27;99767.16;;;7.30;55.02
59391;BME280;53405;57.012;40.984;2023-04-23T01:58:55;99761.09;;;7.29;55.19
59391;BME280;53405;57.012;40.984;2023-04-23T02:01:23;99777.63;;;7.30;54.93
59391;BME280;53405;57.012;40.984;2023-04-23T02:03:51;99772.53;;;7.28;55.93
59391;BME280;53405;57.012;40.984;2023-04-23T02:06:19;99740.25;;;6.95;56.08
59391;BME280;53405;57.012;40.984;2023-04-23T02:08:46;99780.38;;;7.12;56.33
59391;BME280;53405;57.012;40.984;2023-04-23T02:11:14;99779.38;;;7.04;57.09
59391;BME280;53405;57.012;40.984;2023-04-23T02:13:42;99786.25;;;7.05;58.21
59391;BME280;53405;57.012;40.984;2023-04-23T02:16:09;99786.59;;;7.11;58.19
59391;BME280;53405;57.012;40.984;2023-04-23T02:18:39;99780.00;;;6.98;58.08
59391;BME280;53405;57.012;40.984;2023-04-23T02:21:07;99785.22;;;6.90;58.84
59391;BME280;53405;57.012;40.984;2023-04-23T02:23:35;99778.72;;;7.02;58.47
59391;BME280;53405;57.012;40.984;2023-04-23T02:26:02;99780.88;;;7.07;57.43
59391;BME280;53405;57.012;40.984;2023-04-23T02:28:30;99787.28;;;7.13;57.09
59391;BME280;53405;57.012;40.984;2023-04-23T02:30:58;99789.06;;;7.20;57.33
59391;BME280;53405;57.012;40.984;2023-04-23T02:33:26;99790.56;;;7.31;55.54
59391;BME280;53405;57.012;40.984;2023-04-23T02:35:53;99788.13;;;7.46;55.21
59391;BME280;53405;57.012;40.984;2023-04-23T02:38:21;99792.22;;;7.73;54.29
59391;BME280;53405;57.012;40.984;2023-04-23T02:40:49;99795.66;;;7.99;53.10
59391;BME280;53405;57.012;40.984;2023-04-23T02:43:16;99795.31;;;8.02;52.57
59391;BME280;53405;57.012;40.984;2023-04-23T02:45:44;99798.28;;;7.99;51.82
59391;BME280;53405;57.012;40.984;2023-04-23T02:48:12;99803.53;;;7.90;52.08
59391;BME280;53405;57.012;40.984;2023-04-23T02:50:41;99778.47;;;7.88;52.05
59391;BME280;53405;57.012;40.984;2023-04-23T02:53:08;99797.16;;;8.01;51.55
59391;BME280;53405;57.012;40.984;2023-04-23T02:55:45;99787.28;;;8.03;51.24
59391;BME280;53405;57.012;40.984;2023-04-23T02:58:13;99797.09;;;8.18;50.89
59391;BME280;53405;57.012;40.984;2023-04-23T03:00:42;99793.00;;;8.23;50.67
59391;BME280;53405;57.012;40.984;2023-04-23T03:03:09;99796.78;;;8.21;50.44
59391;BME280;53405;57.012;40.984;2023-04-23T03:05:38;99798.75;;;8.19;50.22
59391;BME280;53405;57.012;40.984;2023-04-23T03:08:06;99807.25;;;8.21;50.41
59391;BME280;53405;57.012;40.984;2023-04-23T03:10:33;99807.59;;;8.18;50.53
59391;BME280;53405;57.012;40.984;2023-04-23T03:13:01;99814.00;;;8.23;50.40
59391;BME280;53405;57.012;40.984;2023-04-23T03:15:29;99802.16;;;8.27;50.46
59391;BME280;53405;57.012;40.984;2023-04-23T03:17:57;99813.13;;;8.39;50.59
59391;BME280;53405;57.012;40.984;2023-04-23T03:20:26;99808.53;;;8.49;50.20
59391;BME280;53405;57.012;40.984;2023-04-23T03:22:54;99814.75;;;8.57;50.63
59391;BME280;53405;57.012;40.984;2023-04-23T03:25:22;99816.19;;;8.67;50.40
59391;BME280;53405;57.012;40.984;2023-04-23T03:27:52;99809.44;;;8.73;50.80
59391;BME280;53405;57.012;40.984;2023-04-23T03:30:20;99780.34;;;8.52;50.39
59391;BME280;53405;57.012;40.984;2023-04-23T03:32:49;99821.03;;;8.87;50.49
59391;BME280;53405;57.012;40.984;2023-04-23T03:35:17;99816.25;;;8.99;50.97
59391;BME280;53405;57.012;40.984;2023-04-23T03:37:47;99818.56;;;8.85;51.63
59391;BME280;53405;57.012;40.984;2023-04-23T03:40:15;99794.72;;;8.95;51.17
59391;BME280;53405;57.012;40.984;2023-04-23T03:42:47;99830.41;;;9.21;50.44
59391;BME280;53405;57.012;40.984;2023-04-23T03:45:18;99830.59;;;9.43;50.28
59391;BME280;53405;57.012;40.984;2023-04-23T03:47:45;99827.03;;;9.35;50.44
59391;BME280;53405;57.012;40.984;2023-04-23T03:50:13;99817.84;;;9.08;50.15
59391;BME280;53405;57.012;40.984;2023-04-23T03:52:43;99840.00;;;9.37;49.94
59391;BME280;53405;57.012;40.984;2023-04-23T03:55:21;99842.47;;;9.38;50.43
59391;BME280;53405;57.012;40.984;2023-04-23T03:57:49;99811.34;;;9.19;50.44
59391;BME280;53405;57.012;40.984;2023-04-23T04:00:24;99843.00;;;9.57;50.26
59391;BME280;53405;57.012;40.984;2023-04-23T04:02:52;99841.03;;;9.97;48.98
59391;BME280;53405;57.012;40.984;2023-04-23T04:05:22;99847.53;;;10.09;48.67
59391;BME280;53405;57.012;40.984;2023-04-23T04:07:52;99847.19;;;9.89;49.44
59391;BME280;53405;57.012;40.984;2023-04-23T04:10:20;99855.41;;;10.09;48.29
59391;BME280;53405;57.012;40.984;2023-04-23T04:12:48;99864.13;;;10.33;47.99
59391;BME280;53405;57.012;40.984;2023-04-23T04:15:16;99851.09;;;9.93;48.82
59391;BME280;53405;57.012;40.984;2023-04-23T04:17:46;99862.94;;;9.74;50.15
59391;BME280;53405;57.012;40.984;2023-04-23T04:20:14;99862.19;;;10.04;49.66
59391;BME280;53405;57.012;40.984;2023-04-23T04:22:43;99850.16;;;10.09;49.25
59391;BME280;53405;57.012;40.984;2023-04-23T04:25:10;99856.31;;;10.17;49.04
59391;BME280;53405;57.012;40.984;2023-04-23T04:27:38;99859.25;;;10.22;48.53
59391;BME280;53405;57.012;40.984;2023-04-23T04:30:08;99833.84;;;10.29;47.89
59391;BME280;53405;57.012;40.984;2023-04-23T04:32:35;99867.59;;;10.48;47.86
59391;BME280;53405;57.012;40.984;2023-04-23T04:35:05;99873.38;;;10.44;48.16
59391;BME280;53405;57.012;40.984;2023-04-23T04:37:35;99875.75;;;10.69;47.26
59391;BME280;53405;57.012;40.984;2023-04-23T04:40:02;99856.94;;;10.42;48.05
59391;BME280;53405;57.012;40.984;2023-04-23T04:42:31;99877.84;;;10.58;48.22
59391;BME280;53405;57.012;40.984;2023-04-23T04:44:59;99831.94;;;10.23;48.55
59391;BME280;53405;57.012;40.984;2023-04-23T04:47:30;99885.63;;;10.37;48.71
59391;BME280;53405;57.012;40.984;2023-04-23T04:49:58;99885.63;;;10.37;48.72
59391;BME280;53405;57.012;40.984;2023-04-23T04:52:26;99876.25;;;10.34;48.50
59391;BME280;53405;57.012;40.984;2023-04-23T04:54:54;99887.81;;;10.48;48.72
59391;BME280;53405;57.012;40.984;2023-04-23T04:57:22;99888.13;;;10.68;48.71
59391;BME280;53405;57.012;40.984;2023-04-23T04:59:49;99900.00;;;10.94;48.25
59391;BME280;53405;57.012;40.984;2023-04-23T05:02:18;99901.00;;;11.08;47.81
59391;BME280;53405;57.012;40.984;2023-04-23T05:04:46;99903.13;;;10.97;47.86
59391;BME280;53405;57.012;40.984;2023-04-23T05:07:14;99909.09;;;10.91;47.76
59391;BME280;53405;57.012;40.984;2023-04-23T05:09:42;99903.66;;;10.93;47.91
59391;BME280;53405;57.012;40.984;2023-04-23T05:12:10;99903.91;;;10.98;48.30
59391;BME280;53405;57.012;40.984;2023-04-23T05:14:38;99900.72;;;11.17;47.90
59391;BME280;53405;57.012;40.984;2023-04-23T05:17:06;99900.53;;;11.34;47.54
59391;BME280;53405;57.012;40.984;2023-04-23T05:19:33;99905.31;;;11.45;47.40
59391;BME280;53405;57.012;40.984;2023-04-23T05:22:01;99908.13;;;11.44;47.72
59391;BME280;53405;57.012;40.984;2023-04-23T05:24:30;99877.63;;;11.56;46.31
59391;BME280;53405;57.012;40.984;2023-04-23T05:26:58;99909.75;;;11.81;46.12
59391;BME280;53405;57.012;40.984;2023-04-23T05:29:25;99907.31;;;11.80;46.51
59391;BME280;53405;57.012;40.984;2023-04-23T05:31:53;99917.63;;;11.96;46.36
59391;BME280;53405;57.012;40.984;2023-04-23T05:34:21;99920.75;;;12.28;45.78
59391;BME280;53405;57.012;40.984;2023-04-23T05:36:48;99932.38;;;12.62;44.67
59391;BME280;53405;57.012;40.984;2023-04-23T05:39:16;99929.03;;;12.81;43.83
59391;BME280;53405;57.012;40.984;2023-04-23T05:41:43;99909.13;;;12.79;44.47
59391;BME280;53405;57.012;40.984;2023-04-23T05:44:11;99928.97;;;13.03;44.14
59391;BME280;53405;57.012;40.984;2023-04-23T05:46:39;99925.66;;;13.29;42.43
59391;BME280;53405;57.012;40.984;2023-04-23T05:49:06;99930.47;;;13.19;43.04
59391;BME280;53405;57.012;40.984;2023-04-23T05:51:34;99934.84;;;13.33;43.13
59391;BME280;53405;57.012;40.984;2023-04-23T05:54:02;99937.09;;;13.43;42.99
59391;BME280;53405;57.012;40.984;2023-04-23T05:56:30;99932.47;;;13.45;42.78
59391;BME280;53405;57.012;40.984;2023-04-23T05:58:58;99938.13;;;13.35;43.20
59391;BME280;53405;57.012;40.984;2023-04-23T06:01:25;99949.34;;;13.51;42.28
59391;BME280;53405;57.012;40.984;2023-04-23T06:03:53;99927.19;;;13.59;43.04
59391;BME280;53405;57.012;40.984;2023-04-23T06:06:21;99938.44;;;13.74;42.86
59391;BME280;53405;57.012;40.984;2023-04-23T06:08:48;99938.91;;;14.04;41.98
59391;BME280;53405;57.012;40.984;2023-04-23T06:11:17;99935.25;;;14.05;41.45
59391;BME280;53405;57.012;40.984;2023-04-23T06:13:45;99930.56;;;14.07;40.88
59391;BME280;53405;57.012;40.984;2023-04-23T06:16:12;99931.78;;;14.05;40.58
59391;BME280;53405;57.012;40.984;2023-04-23T06:18:40;99940.13;;;14.15;40.98
59391;BME280;53405;57.012;40.984;2023-04-23T06:21:08;99937.69;;;14.47;40.54
59391;BME280;53405;57.012;40.984;2023-04-23T06:23:35;99936.47;;;14.76;39.92
59391;BME280;53405;57.012;40.984;2023-04-23T06:26:03;99941.16;;;14.81;40.08
59391;BME280;53405;57.012;40.984;2023-04-23T06:28:32;99931.78;;;14.78;39.98
59391;BME280;53405;57.012;40.984;2023-04-23T06:31:34;99939.50;;;15.00;40.43
59391;BME280;53405;57.012;40.984;2023-04-23T06:34:03;99939.81;;;15.24;38.60
59391;BME280;53405;57.012;40.984;2023-04-23T06:36:30;99938.19;;;15.23;39.01
59391;BME280;53405;57.012;40.984;2023-04-23T06:38:58;99935.53;;;15.23;38.78
59391;BME280;53405;57.012;40.984;2023-04-23T06:41:26;99945.69;;;15.32;38.73
59391;BME280;53405;57.012;40.984;2023-04-23T06:44:09;99926.50;;;15.37;38.48
59391;BME280;53405;57.012;40.984;2023-04-23T06:46:48;99940.44;;;15.71;37.55
59391;BME280;53405;57.012;40.984;2023-04-23T06:49:16;99952.47;;;15.80;37.82
59391;BME280;53405;57.012;40.984;2023-04-23T06:51:44;99951.88;;;15.78;37.51
59391;BME280;53405;57.012;40.984;2023-04-23T06:54:12;99953.06;;;15.82;37.31
59391;BME280;53405;57.012;40.984;2023-04-23T06:56:39;99948.94;;;16.18;36.56
59391;BME280;53405;57.012;40.984;2023-04-23T06:59:07;99958.63;;;16.06;37.40
59391;BME280;53405;57.012;40.984;2023-04-23T07:01:43;99961.91;;;16.01;36.80
59391;BME280;53405;57.012;40.984;2023-04-23T07:04:11;99956.25;;;16.23;34.92
59391;BME280;53405;57.012;40.984;2023-04-23T07:06:39;99934.50;;;16.07;36.01
59391;BME280;53405;57.012;40.984;2023-04-23T07:09:06;99942.41;;;16.46;34.99
59391;BME280;53405;57.012;40.984;2023-04-23T07:11:34;99953.03;;;16.46;35.05
59391;BME280;53405;57.012;40.984;2023-04-23T07:14:03;99923.38;;;16.24;34.10
59391;BME280;53405;57.012;40.984;2023-04-23T07:16:31;99960.88;;;16.59;34.84
59391;BME280;53405;57.012;40.984;2023-04-23T07:19:00;99933.78;;;16.51;33.80
59391;BME280;53405;57.012;40.984;2023-04-23T07:21:30;99953.47;;;16.61;33.75
59391;BME280;53405;57.012;40.984;2023-04-23T07:23:59;99958.31;;;16.71;33.80
59391;BME280;53405;57.012;40.984;2023-04-23T07:26:29;99969.84;;;16.90;32.70
59391;BME280;53405;57.012;40.984;2023-04-23T07:28:57;99956.75;;;16.82;32.30
59391;BME280;53405;57.012;40.984;2023-04-23T07:31:25;99965.78;;;17.06;32.13
59391;BME280;53405;57.012;40.984;2023-04-23T07:33:54;99946.63;;;16.97;30.89
59391;BME280;53405;57.012;40.984;2023-04-23T07:36:22;99952.94;;;17.22;30.43
59391;BME280;53405;57.012;40.984;2023-04-23T07:38:50;99970.59;;;17.65;29.83
59391;BME280;53405;57.012;40.984;2023-04-23T07:41:18;99965.06;;;17.66;29.29
59391;BME280;53405;57.012;40.984;2023-04-23T07:43:45;99959.66;;;17.55;31.26
59391;BME280;53405;57.012;40.984;2023-04-23T07:46:13;99935.09;;;17.71;29.88
59391;BME280;53405;57.012;40.984;2023-04-23T07:48:41;99966.59;;;18.04;29.24
59391;BME280;53405;57.012;40.984;2023-04-23T07:51:12;99958.41;;;17.87;28.99
59391;BME280;53405;57.012;40.984;2023-04-23T07:53:42;99966.00;;;17.72;29.30
59391;BME280;53405;57.012;40.984;2023-04-23T07:56:10;99961.75;;;17.52;29.76
59391;BME280;53405;57.012;40.984;2023-04-23T07:58:38;99952.97;;;17.82;30.10
59391;BME280;53405;57.012;40.984;2023-04-23T08:01:06;99967.00;;;18.32;28.93
59391;BME280;53405;57.012;40.984;2023-04-23T08:03:34;99957.88;;;18.39;29.50
59391;BME280;53405;57.012;40.984;2023-04-23T08:06:01;99959.56;;;18.22;29.33
59391;BME280;53405;57.012;40.984;2023-04-23T08:08:31;99942.31;;;18.24;29.62
59391;BME280;53405;57.012;40.984;2023-04-23T08:10:59;99966.47;;;18.65;28.82
59391;BME280;53405;57.012;40.984;2023-04-23T08:13:27;99963.00;;;18.76;28.56
59391;BME280;53405;57.012;40.984;2023-04-23T08:15:54;99969.47;;;18.81;27.61
59391;BME280;53405;57.012;40.984;2023-04-23T08:18:22;99958.69;;;18.40;28.51
59391;BME280;53405;57.012;40.984;2023-04-23T08:20:50;99958.94;;;18.98;27.99
59391;BME280;53405;57.012;40.984;2023-04-23T08:23:18;99964.41;;;19.43;27.40
59391;BME280;53405;57.012;40.984;2023-04-23T08:25:45;99959.75;;;19.50;26.87
59391;BME280;53405;57.012;40.984;2023-04-23T08:28:13;99947.03;;;19.70;27.62
59391;BME280;53405;57.012;40.984;2023-04-23T08:30:41;99957.03;;;19.91;26.36
59391;BME280;53405;57.012;40.984;2023-04-23T08:33:09;99949.47;;;19.30;26.94
59391;BME280;53405;57.012;40.984;2023-04-23T08:35:37;99952.06;;;19.54;26.94
59391;BME280;53405;57.012;40.984;2023-04-23T08:38:04;99948.38;;;19.55;26.78
59391;BME280;53405;57.012;40.984;2023-04-23T08:40:35;99945.97;;;19.71;26.85
59391;BME280;53405;57.012;40.984;2023-04-23T08:43:30;99945.25;;;20.38;26.79
59391;BME280;53405;57.012;40.984;2023-04-23T08:46:02;99936.19;;;20.56;25.76
59391;BME280;53405;57.012;40.984;2023-04-23T08:48:33;99945.47;;;21.09;24.70
59391;BME280;53405;57.012;40.984;2023-04-23T08:51:01;99940.31;;;21.03;25.17
59391;BME280;53405;57.012;40.984;2023-04-23T08:53:32;99916.69;;;20.61;25.87
59391;BME280;53405;57.012;40.984;2023-04-23T08:56:01;99928.50;;;20.99;26.25
59391;BME280;53405;57.012;40.984;2023-04-23T08:58:30;99919.22;;;21.28;25.25
59391;BME280;53405;57.012;40.984;2023-04-23T09:01:28;99944.16;;;21.34;24.65
59391;BME280;53405;57.012;40.984;2023-04-23T09:03:57;99921.53;;;20.08;25.72
59391;BME280;53405;57.012;40.984;2023-04-23T09:06:26;99925.88;;;20.48;25.93
59391;BME280;53405;57.012;40.984;2023-04-23T09:08:54;99937.63;;;21.25;25.34
59391;BME280;53405;57.012;40.984;2023-04-23T09:11:22;99939.06;;;21.55;24.79
59391;BME280;53405;57.012;40.984;2023-04-23T09:13:50;99942.03;;;21.58;24.28
59391;BME280;53405;57.012;40.984;2023-04-23T09:16:18;99942.63;;;21.60;23.92
59391;BME280;53405;57.012;40.984;2023-04-23T09:18:45;99950.03;;;21.09;24.46
59391;BME280;53405;57.012;40.984;2023-04-23T09:21:13;99947.22;;;21.21;24.77
59391;BME280;53405;57.012;40.984;2023-04-23T09:23:42;99934.94;;;21.96;24.14
59391;BME280;53405;57.012;40.984;2023-04-23T09:26:18;99939.03;;;22.84;22.88
59391;BME280;53405;57.012;40.984;2023-04-23T09:28:49;99937.06;;;23.17;22.95
59391;BME280;53405;57.012;40.984;2023-04-23T09:31:21;99932.22;;;23.09;23.19
59391;BME280;53405;57.012;40.984;2023-04-23T09:33:52;99923.00;;;23.05;23.22
59391;BME280;53405;57.012;40.984;2023-04-23T09:36:21;99925.38;;;23.64;23.61
59391;BME280;53405;57.012;40.984;2023-04-23T09:38:57;99931.91;;;23.89;21.72
59391;BME280;53405;57.012;40.984;2023-04-23T09:41:28;99923.22;;;23.56;21.57
59391;BME280;53405;57.012;40.984;2023-04-23T09:43:58;99916.03;;;23.98;21.43
59391;BME280;53405;57.012;40.984;2023-04-23T09:46:34;99928.34;;;23.78;21.79
59391;BME280;53405;57.012;40.984;2023-04-23T09:49:04;99933.38;;;23.39;22.20
59391;BME280;53405;57.012;40.984;2023-04-23T09:51:55;99921.84;;;23.38;22.71
59391;BME280;53405;57.012;40.984;2023-04-23T09:54:25;99895.25;;;23.47;21.69
59391;BME280;53405;57.012;40.984;2023-04-23T09:56:53;99921.66;;;23.81;22.31
59391;BME280;53405;57.012;40.984;2023-04-23T09:59:29;99915.22;;;23.87;21.78
59391;BME280;53405;57.012;40.984;2023-04-23T10:02:02;99904.47;;;23.87;21.10
59391;BME280;53405;57.012;40.984;2023-04-23T10:04:33;99921.91;;;24.46;22.08
59391;BME280;53405;57.012;40.984;2023-04-23T10:07:03;99915.91;;;23.26;21.29
59391;BME280;53405;57.012;40.984;2023-04-23T10:09:45;99917.78;;;22.30;22.80
59391;BME280;53405;57.012;40.984;2023-04-23T10:12:13;99900.84;;;22.67;22.37
59391;BME280;53405;57.012;40.984;2023-04-23T10:14:45;99914.88;;;23.58;21.38
59391;BME280;53405;57.012;40.984;2023-04-23T10:17:15;99896.34;;;23.61;21.99
59391;BME280;53405;57.012;40.984;2023-04-23T10:19:44;99918.44;;;23.99;21.30
59391;BME280;53405;57.012;40.984;2023-04-23T10:22:13;99904.19;;;23.84;21.02
59391;BME280;53405;57.012;40.984;2023-04-23T10:24:50;99909.31;;;24.31;21.82
59391;BME280;53405;57.012;40.984;2023-04-23T10:27:19;99907.69;;;23.94;21.51
59391;BME280;53405;57.012;40.984;2023-04-23T10:29:52;99884.25;;;24.31;20.73
59391;BME280;53405;57.012;40.984;2023-04-23T10:32:20;99906.88;;;24.35;21.59
59391;BME280;53405;57.012;40.984;2023-04-23T10:34:49;99907.91;;;24.54;21.03
59391;BME280;53405;57.012;40.984;2023-04-23T10:37:17;99904.16;;;24.50;20.96
59391;BME280;53405;57.012;40.984;2023-04-23T10:39:49;99904.47;;;23.87;20.64
59391;BME280;53405;57.012;40.984;2023-04-23T10:42:21;99888.88;;;23.89;21.84
59391;BME280;53405;57.012;40.984;2023-04-23T10:44:54;99903.31;;;24.76;20.44
59391;BME280;53405;57.012;40.984;2023-04-23T10:47:30;99894.97;;;24.77;20.37
59391;BME280;53405;57.012;40.984;2023-04-23T10:50:26;99905.50;;;24.48;20.87
59391;BME280;53405;57.012;40.984;2023-04-23T10:52:55;99899.31;;;25.28;19.74
59391;BME280;53405;57.012;40.984;2023-04-23T10:55:27;99900.25;;;25.92;19.43
59391;BME280;53405;57.012;40.984;2023-04-23T10:58:00;99895.34;;;26.00;19.19
59391;BME280;53405;57.012;40.984;2023-04-23T11:00:43;99897.84;;;25.91;19.68
59391;BME280;53405;57.012;40.984;2023-04-23T11:03:38;99894.31;;;25.90;18.89
59391;BME280;53405;57.012;40.984;2023-04-23T11:06:13;99878.72;;;25.48;19.50
59391;BME280;53405;57.012;40.984;2023-04-23T11:08:50;99898.09;;;25.55;20.06
59391;BME280;53405;57.012;40.984;2023-04-23T11:11:41;99890.47;;;25.62;19.94
59391;BME280;53405;57.012;40.984;2023-04-23T11:14:11;99896.44;;;25.99;19.42
59391;BME280;53405;57.012;40.984;2023-04-23T11:16:42;99886.16;;;26.01;18.88
59391;BME280;53405;57.012;40.984;2023-04-23T11:19:10;99890.44;;;26.60;18.49
59391;BME280;53405;57.012;40.984;2023-04-23T11:22:01;99891.03;;;26.57;18.57
59391;BME280;53405;57.012;40.984;2023-04-23T11:24:36;99892.88;;;26.86;17.92
59391;BME280;53405;57.012;40.984;2023-04-23T11:27:12;99890.34;;;25.83;18.40
59391;BME280;53405;57.012;40.984;2023-04-23T11:29:42;99894.06;;;25.52;19.28
59391;BME280;53405;57.012;40.984;2023-04-23T11:32:13;99885.69;;;24.99;20.50
59391;BME280;53405;57.012;40.984;2023-04-23T11:34:43;99882.25;;;25.83;19.60
59391;BME280;53405;57.012;40.984;2023-04-23T11:37:13;99890.22;;;26.03;18.48
59391;BME280;53405;57.012;40.984;2023-04-23T11:39:45;99880.44;;;26.07;18.57
59391;BME280;53405;57.012;40.984;2023-04-23T11:42:14;99884.84;;;25.93;19.39
59391;BME280;53405;57.012;40.984;2023-04-23T11:44:43;99880.44;;;26.07;19.00
59391;BME280;53405;57.012;40.984;2023-04-23T11:47:12;99882.84;;;26.62;18.30
59391;BME280;53405;57.012;40.984;2023-04-23T11:49:44;99879.81;;;26.45;17.91
59391;BME280;53405;57.012;40.984;2023-04-23T11:52:15;99878.19;;;25.85;18.95
59391;BME280;53405;57.012;40.984;2023-04-23T11:54:42;99887.34;;;26.19;18.43
59391;BME280;53405;57.012;40.984;2023-04-23T11:57:10;99884.00;;;26.03;18.16
59391;BME280;53405;57.012;40.984;2023-04-23T11:59:38;99884.09;;;24.98;19.67
59391;BME280;53405;57.012;40.984;2023-04-23T12:02:06;99876.22;;;24.21;20.65
59391;BME280;53405;57.012;40.984;2023-04-23T12:04:33;99870.31;;;23.98;21.43
59391;BME280;53405;57.012;40.984;2023-04-23T12:07:01;99867.47;;;24.80;20.10
59391;BME280;53405;57.012;40.984;2023-04-23T12:09:31;99869.31;;;25.45;19.47
59391;BME280;53405;57.012;40.984;2023-04-23T12:11:59;99869.84;;;26.16;19.00
59391;BME280;53405;57.012;40.984;2023-04-23T12:14:28;99860.16;;;25.81;19.46
59391;BME280;53405;57.012;40.984;2023-04-23T12:17:01;99854.88;;;26.00;18.67
59391;BME280;53405;57.012;40.984;2023-04-23T12:19:35;99849.19;;;26.01;19.46
59391;BME280;53405;57.012;40.984;2023-04-23T12:22:03;99854.13;;;26.23;18.53
59391;BME280;53405;57.012;40.984;2023-04-23T12:24:48;99863.31;;;26.76;18.10
59391;BME280;53405;57.012;40.984;2023-04-23T12:27:21;99856.28;;;25.97;18.58
59391;BME280;53405;57.012;40.984;2023-04-23T12:29:58;99834.19;;;24.40;20.26
59391;BME280;53405;57.012;40.984;2023-04-23T12:32:26;99862.50;;;24.22;20.51
59391;BME280;53405;57.012;40.984;2023-04-23T12:34:54;99855.25;;;24.17;20.61
59391;BME280;53405;57.012;40.984;2023-04-23T12:37:28;99864.63;;;23.58;21.09
59391;BME280;53405;57.012;40.984;2023-04-23T12:39:56;99856.84;;;23.77;21.67
59391;BME280;53405;57.012;40.984;2023-04-23T12:42:25;99841.81;;;23.76;21.71
59391;BME280;53405;57.012;40.984;2023-04-23T12:44:53;99838.75;;;24.55;20.33
59391;BME280;53405;57.012;40.984;2023-04-23T12:47:24;99843.81;;;24.67;20.25
59391;BME280;53405;57.012;40.984;2023-04-23T12:49:51;99836.81;;;24.71;19.82
59391;BME280;53405;57.012;40.984;2023-04-23T12:52:21;99837.53;;;23.86;21.46
59391;BME280;53405;57.012;40.984;2023-04-23T12:54:49;99845.31;;;23.72;20.70
59391;BME280;53405;57.012;40.984;2023-04-23T12:57:22;99834.78;;;23.39;21.15
59391;BME280;53405;57.012;40.984;2023-04-23T12:59:51;99837.75;;;23.48;21.25
59391;BME280;53405;57.012;40.984;2023-04-23T13:02:23;99813.81;;;23.21;22.06
59391;BME280;53405;57.012;40.984;2023-04-23T13:04:52;99811.94;;;23.16;22.19